createdAt,value
2019-02-11T00:01:40.190Z,5.00
2019-02-11T00:09:41.490Z,4.80
2019-02-11T00:12:22.177Z,5.00
2019-02-11T00:15:02.993Z,4.90
2019-02-11T00:20:42.076Z,5.10
2019-02-11T00:23:22.727Z,4.70
2019-02-11T00:29:02.425Z,5.10
2019-02-11T00:34:41.367Z,5.20
2019-02-11T00:43:19.530Z,5.30
2019-02-11T00:48:58.825Z,5.40
2019-02-11T00:51:39.293Z,5.30
2019-02-11T01:00:16.296Z,5.50
2019-02-11T01:05:55.833Z,5.40
2019-02-11T01:11:34.695Z,5.10
2019-02-11T01:17:13.798Z,5.20
2019-02-11T01:19:54.346Z,5.20
2019-02-11T01:22:34.871Z,5.00
2019-02-11T01:31:12.961Z,4.90
2019-02-11T01:43:04.482Z,5.20
2019-02-11T01:45:45.003Z,5.00
2019-02-11T01:48:25.681Z,5.00
2019-02-11T01:51:06.391Z,4.90
2019-02-11T02:02:59.458Z,4.90
2019-02-11T02:11:51.693Z,4.80
2019-02-11T02:14:32.242Z,4.70
2019-02-11T02:17:12.876Z,6.00
2019-02-11T02:19:53.408Z,4.70
2019-02-11T02:22:33.932Z,6.70
2019-02-11T02:25:14.880Z,4.70
2019-02-11T02:27:55.540Z,4.70
2019-02-11T02:30:36.161Z,7.30
2019-02-11T02:33:16.697Z,4.70
2019-02-11T02:35:57.910Z,5.90
2019-02-11T02:38:38.508Z,4.70
2019-02-11T02:41:19.178Z,4.80
2019-02-11T02:44:00.118Z,6.70
2019-02-11T02:46:41.175Z,4.80
2019-02-11T02:49:22.167Z,4.80
2019-02-11T02:52:02.589Z,4.80
2019-02-11T02:54:43.079Z,4.80
2019-02-11T02:57:23.726Z,5.90
2019-02-11T03:00:04.138Z,6.60
2019-02-11T03:02:44.662Z,5.90
2019-02-11T03:05:25.193Z,4.80
2019-02-11T03:08:05.731Z,6.20
2019-02-11T03:10:46.333Z,6.40
2019-02-11T03:13:26.777Z,4.70
2019-02-11T03:16:07.772Z,4.60
2019-02-11T03:18:48.737Z,4.60
2019-02-11T03:21:29.459Z,4.70
2019-02-11T03:24:10.268Z,4.70
2019-02-11T03:26:51.149Z,4.50
2019-02-11T03:29:32.188Z,4.60
2019-02-11T03:32:12.994Z,4.60
2019-02-11T03:34:53.756Z,4.50
2019-02-11T03:37:34.375Z,4.50
2019-02-11T03:40:14.914Z,4.50
2019-02-11T03:42:55.652Z,4.50
2019-02-11T03:45:36.238Z,4.50
2019-02-11T03:48:16.694Z,6.80
2019-02-11T03:50:57.247Z,4.40
2019-02-11T03:53:38.120Z,5.30
2019-02-11T04:02:16.173Z,3.90
2019-02-11T04:04:57.122Z,5.80
2019-02-11T04:07:38.055Z,3.90
2019-02-11T04:10:18.713Z,3.90
2019-02-11T04:12:59.449Z,4.00
2019-02-11T04:15:39.965Z,5.90
2019-02-11T04:21:19.413Z,4.00
2019-02-11T04:23:59.995Z,4.00
2019-02-11T04:26:41.007Z,4.00
2019-02-11T04:29:21.760Z,3.90
2019-02-11T04:32:02.260Z,3.80
2019-02-11T04:34:43.119Z,6.00
2019-02-11T04:37:24.197Z,5.60
2019-02-11T04:40:04.957Z,6.20
2019-02-11T04:42:45.859Z,4.00
2019-02-11T04:45:26.884Z,4.00
2019-02-11T04:48:07.912Z,3.60
2019-02-11T04:50:48.821Z,3.90
2019-02-11T04:53:29.344Z,6.60
2019-02-11T04:56:09.805Z,3.90
2019-02-11T04:58:50.649Z,3.90
2019-02-11T05:01:31.110Z,3.90
2019-02-11T05:04:11.530Z,4.00
2019-02-11T05:09:50.587Z,4.00
2019-02-11T05:12:31.022Z,4.00
2019-02-11T05:15:11.546Z,4.00
2019-02-11T05:17:52.159Z,3.90
2019-02-11T05:20:33.238Z,4.00
2019-02-11T05:23:14.132Z,5.30
2019-02-11T05:25:54.638Z,4.00
2019-02-11T05:28:35.566Z,4.00
2019-02-11T05:31:16.496Z,4.00
2019-02-11T05:39:54.726Z,3.90
2019-02-11T05:42:35.091Z,3.90
2019-02-11T05:45:15.642Z,3.90
2019-02-11T05:47:56.144Z,3.80
2019-02-11T05:50:37.214Z,3.80
2019-02-11T05:53:17.712Z,3.70
2019-02-11T05:55:58.242Z,3.70
2019-02-11T05:58:38.983Z,3.60
2019-02-11T06:04:18.118Z,3.60
2019-02-11T06:06:58.952Z,3.60
2019-02-11T06:09:39.777Z,3.60
2019-02-11T06:12:20.389Z,3.60
2019-02-11T06:15:04.379Z,3.30
2019-02-11T06:17:43.195Z,3.50
2019-02-11T06:20:24.162Z,3.40
2019-02-11T06:26:17.310Z,3.10
2019-02-11T06:28:57.931Z,3.00
2019-02-11T06:31:38.515Z,3.00
2019-02-11T06:34:19.070Z,2.90
2019-02-11T06:40:12.085Z,2.70
2019-02-11T06:45:50.976Z,2.60
2019-02-11T06:48:31.558Z,2.50
2019-02-11T06:57:22.678Z,2.30
2019-02-11T07:03:02.483Z,2.10
2019-02-11T07:11:53.617Z,2.10
2019-02-11T07:20:31.270Z,2.10
2019-02-11T07:29:22.595Z,2.00
2019-02-11T07:32:03.095Z,2.00
2019-02-11T07:34:43.789Z,2.00
2019-02-11T07:40:37.719Z,1.90
2019-02-11T07:46:33.119Z,1.70
2019-02-11T07:49:14.232Z,1.70
2019-02-11T08:00:50.525Z,1.60
2019-02-11T08:03:31.147Z,1.50
2019-02-11T08:06:11.601Z,1.50
2019-02-11T08:08:52.501Z,1.40
2019-02-11T08:14:45.409Z,1.50
2019-02-11T08:20:38.375Z,1.50
2019-02-11T08:23:18.839Z,1.60
2019-02-11T08:25:59.364Z,1.50
2019-02-11T08:28:39.809Z,1.40
2019-02-11T08:31:20.402Z,1.50
2019-02-11T08:34:01.041Z,1.50
2019-02-11T08:39:54.165Z,1.50
2019-02-11T08:42:34.870Z,1.60
2019-02-11T08:45:15.692Z,1.70
2019-02-11T08:47:56.610Z,1.70
2019-02-11T08:50:37.496Z,1.70
2019-02-11T08:53:18.398Z,1.70
2019-02-11T08:59:11.506Z,1.70
2019-02-11T09:01:52.250Z,1.80
2019-02-11T09:04:33.057Z,1.50
2019-02-11T09:07:14.070Z,1.80
2019-02-11T09:12:55.948Z,1.90
2019-02-11T09:15:36.662Z,2.00
2019-02-11T09:18:17.268Z,1.90
2019-02-11T09:20:58.286Z,2.00
2019-02-11T09:23:39.274Z,2.00
2019-02-11T09:26:20.126Z,2.00
2019-02-11T09:29:00.824Z,2.00
2019-02-11T09:31:41.542Z,2.00
2019-02-11T09:34:22.192Z,2.00
2019-02-11T09:37:02.812Z,2.10
2019-02-11T09:39:43.484Z,2.10
2019-02-11T09:42:24.112Z,2.10
2019-02-11T09:45:05.118Z,2.10
2019-02-11T09:47:45.728Z,2.20
2019-02-11T09:53:24.581Z,2.30
2019-02-11T09:56:05.397Z,2.30
2019-02-11T09:58:46.168Z,2.30
2019-02-11T10:01:26.976Z,2.30
2019-02-11T10:04:07.414Z,4.00
2019-02-11T10:06:48.091Z,2.30
2019-02-11T10:09:28.764Z,2.40
2019-02-11T10:15:21.645Z,2.40
2019-02-11T10:18:02.618Z,4.90
2019-02-11T10:20:43.434Z,2.40
2019-02-11T10:23:24.193Z,2.50
2019-02-11T10:26:04.811Z,2.50
2019-02-11T10:28:45.757Z,2.50
2019-02-11T10:31:26.632Z,2.40
2019-02-11T10:37:06.013Z,2.50
2019-02-11T10:39:47.093Z,2.50
2019-02-11T10:42:28.011Z,2.60
2019-02-11T10:45:08.441Z,2.60
2019-02-11T10:50:48.386Z,2.60
2019-02-11T10:53:29.482Z,2.60
2019-02-11T10:56:10.367Z,2.70
2019-02-11T10:58:51.244Z,2.60
2019-02-11T11:01:31.817Z,2.60
2019-02-11T11:04:12.290Z,2.60
2019-02-11T11:06:53.142Z,2.50
2019-02-11T11:09:33.679Z,2.50
2019-02-11T11:12:14.547Z,2.50
2019-02-11T11:14:55.300Z,2.40
2019-02-11T11:17:36.283Z,2.30
2019-02-11T11:20:16.636Z,2.30
2019-02-11T11:22:57.649Z,2.30
2019-02-11T11:25:38.189Z,2.40
2019-02-11T11:28:18.967Z,2.40
2019-02-11T11:33:37.873Z,2.30
2019-02-11T11:36:18.862Z,2.30
2019-02-11T11:38:59.692Z,2.30
2019-02-11T11:41:40.519Z,2.40
2019-02-11T11:47:19.665Z,2.30
2019-02-11T11:50:00.306Z,2.20
2019-02-11T11:52:41.200Z,2.20
2019-02-11T12:01:20.162Z,2.00
2019-02-11T12:07:13.292Z,2.10
2019-02-11T12:09:53.728Z,2.10
2019-02-11T12:12:34.272Z,2.10
2019-02-11T12:15:15.092Z,2.10
2019-02-11T12:17:55.970Z,2.10
2019-02-11T12:20:36.928Z,2.10
2019-02-11T12:23:17.451Z,2.20
2019-02-11T12:25:57.921Z,2.20
2019-02-11T12:28:38.885Z,2.20
2019-02-11T12:31:19.319Z,2.20
2019-02-11T12:33:59.843Z,2.10
2019-02-11T12:45:33.313Z,2.20
2019-02-11T12:48:14.336Z,2.20
2019-02-11T12:50:54.803Z,2.30
2019-02-11T12:53:35.640Z,2.20
2019-02-11T12:56:16.472Z,2.20
2019-02-11T12:58:57.597Z,2.20
2019-02-11T13:01:38.307Z,2.20
2019-02-11T13:04:18.861Z,2.40
2019-02-11T13:06:59.905Z,2.20
2019-02-11T13:09:40.825Z,2.30
2019-02-11T13:12:19.634Z,2.50
2019-02-11T13:15:56.819Z,2.30
2019-02-11T13:18:17.959Z,2.20
2019-02-11T13:26:42.447Z,2.20
2019-02-11T13:29:30.344Z,2.30
2019-02-11T13:38:12.730Z,2.20
2019-02-11T13:41:00.624Z,2.10
2019-02-11T13:44:11.707Z,2.40
2019-02-11T13:46:58.745Z,2.40
2019-02-11T13:52:35.803Z,2.30
2019-02-11T13:58:04.542Z,2.40
2019-02-11T14:09:45.031Z,2.50
2019-02-11T14:12:25.639Z,2.40
2019-02-11T14:15:06.334Z,2.50
2019-02-11T14:17:46.992Z,2.50
2019-02-11T14:20:27.958Z,2.50
2019-02-11T14:26:21.933Z,2.60
2019-02-11T14:29:02.395Z,2.60
2019-02-11T14:31:42.977Z,2.70
2019-02-11T14:34:23.611Z,2.70
2019-02-11T14:37:04.440Z,2.70
2019-02-11T14:39:45.252Z,2.70
2019-02-11T14:42:26.432Z,2.70
2019-02-11T14:45:07.146Z,2.60
2019-02-11T14:47:47.989Z,2.70
2019-02-11T14:50:28.359Z,2.70
2019-02-11T14:53:08.817Z,2.70
2019-02-11T14:55:49.984Z,2.70
2019-02-11T14:58:30.456Z,2.70
2019-02-11T15:01:11.211Z,2.80
2019-02-11T15:03:52.164Z,2.80
2019-02-11T15:06:32.675Z,2.80
2019-02-11T15:09:13.547Z,2.90
2019-02-11T15:11:54.302Z,2.90
2019-02-11T15:17:34.575Z,2.90
2019-02-11T15:20:15.491Z,2.70
2019-02-11T15:22:56.536Z,2.70
2019-02-11T15:25:37.149Z,2.90
2019-02-11T15:28:17.821Z,2.80
2019-02-11T15:30:58.725Z,3.00
2019-02-11T15:33:39.431Z,2.80
2019-02-11T15:36:21.169Z,2.80
2019-02-11T15:44:59.280Z,2.80
2019-02-11T15:53:37.735Z,2.80
2019-02-11T16:08:25.831Z,2.90
2019-02-11T16:14:06.350Z,2.60
2019-02-11T16:16:47.175Z,2.70
2019-02-11T16:19:28.543Z,3.10
2019-02-11T16:25:07.518Z,2.70
2019-02-11T16:45:39.513Z,2.40
2019-02-11T17:03:26.837Z,2.30
2019-02-11T17:09:20.128Z,2.20
2019-02-11T17:12:00.708Z,2.30
2019-02-11T17:14:42.559Z,2.20
2019-02-11T17:20:22.647Z,2.20
2019-02-11T17:29:02.392Z,2.10
2019-02-11T17:31:43.392Z,2.20
2019-02-11T17:37:24.429Z,2.00
2019-02-11T17:43:03.677Z,2.10
2019-02-11T17:51:42.759Z,1.90
2019-02-11T17:57:36.452Z,2.00
2019-02-11T18:00:18.974Z,1.90
2019-02-11T18:23:49.426Z,1.90
2019-02-11T18:26:31.039Z,2.00
2019-02-11T18:41:07.733Z,2.20
2019-02-11T18:47:01.341Z,2.80
2019-02-11T19:01:36.523Z,2.30
2019-02-11T19:07:16.373Z,2.80
2019-02-11T19:09:56.916Z,2.40
2019-02-11T19:12:38.232Z,2.50
2019-02-11T19:18:21.466Z,2.50
2019-02-11T19:21:02.081Z,2.60
2019-02-11T19:29:55.581Z,2.40
2019-02-11T19:32:36.161Z,2.00
2019-02-11T19:41:17.156Z,1.80
2019-02-11T19:49:55.308Z,1.90
2019-02-11T19:52:35.986Z,1.90
2019-02-11T19:58:31.474Z,1.80
2019-02-11T20:13:06.422Z,1.90
2019-02-11T20:21:58.513Z,1.50
2019-02-11T20:27:51.935Z,1.70
2019-02-11T20:39:44.036Z,1.60
2019-02-11T20:42:24.542Z,1.40
2019-02-11T20:51:03.137Z,1.50
2019-02-11T20:53:43.631Z,1.50
2019-02-11T20:59:23.965Z,1.40
2019-02-11T21:02:04.583Z,1.60
2019-02-11T21:28:33.161Z,1.20
2019-02-11T21:34:27.653Z,1.40
2019-02-11T21:40:08.478Z,1.00
2019-02-11T21:51:58.222Z,1.10
2019-02-11T21:57:37.958Z,0.80
2019-02-11T22:00:18.397Z,0.80
2019-02-11T22:15:09.277Z,0.80
2019-02-11T22:17:48.171Z,0.50
2019-02-11T22:20:36.085Z,0.60
2019-02-11T22:23:23.985Z,0.40
2019-02-11T22:26:11.898Z,0.50
2019-02-11T22:29:18.993Z,0.40
2019-02-11T22:34:54.473Z,0.50
2019-02-11T22:37:42.336Z,0.30
2019-02-11T22:43:17.609Z,0.50
2019-02-11T22:51:40.399Z,0.20
2019-02-11T22:57:15.663Z,0.20
2019-02-11T23:02:44.383Z,0.20
2019-02-11T23:17:17.986Z,0.40
2019-02-11T23:19:58.574Z,0.40
2019-02-11T23:28:16.790Z,0.30
2019-02-11T23:30:57.384Z,0.50
2019-02-11T23:33:38.264Z,0.50
2019-02-11T23:36:18.908Z,0.60
2019-02-11T23:41:57.938Z,1.00
2019-02-11T23:50:49.715Z,0.70
2019-02-11T23:53:30.686Z,0.90
2019-02-11T23:56:11.278Z,0.90
